Time;durP1;ratioP1;P1;durP2;ratioP2;P2;SDS_P1;SDS_P2;PMS_P1;PMS_P2;Temp;Humidity;BMP_temperature;BMP_pressure;BME280_temperature;BME280_humidity;BME280_pressure;Samples;Min_cycle;Max_cycle;Signal;HPM_P1;HPM_P2
2023/03/31 00:01:48;;;;;;;54.03;7.68;;;;;;;;;;5058325;28;20045;-70
2023/03/31 00:04:14;;;;;;;51.58;8.43;;;;;;;;;;5052022;28;20040;-69
2023/03/31 00:06:41;;;;;;;48.63;9.88;;;;;;;;;;5053815;28;20067;-69
2023/03/31 00:09:09;;;;;;;58.63;10.00;;;;;;;;;;5038809;28;20197;-69
2023/03/31 00:11:36;;;;;;;40.10;6.78;;;;;;;;;;5052676;28;20080;-69
2023/03/31 00:14:05;;;;;;;48.75;8.38;;;;;;;;;;5055183;28;20066;-69
2023/03/31 00:16:32;;;;;;;54.67;8.30;;;;;;;;;;5053826;28;20076;-69
2023/03/31 00:19:00;;;;;;;44.15;7.40;;;;;;;;;;5054650;28;20179;-69
2023/03/31 00:21:32;;;;;;;48.90;7.93;;;;;;;;;;5054626;28;20114;-69
2023/03/31 00:24:01;;;;;;;42.45;8.88;;;;;;;;;;5056134;28;20097;-69
2023/03/31 00:26:28;;;;;;;49.70;7.75;;;;;;;;;;5054306;28;21087;-69
2023/03/31 00:28:55;;;;;;;42.70;8.40;;;;;;;;;;5053381;28;20037;-69
2023/03/31 00:31:22;;;;;;;49.70;7.97;;;;;;;;;;5049931;28;20083;-69
2023/03/31 00:33:48;;;;;;;55.00;7.85;;;;;;;;;;5032980;28;20498;-69
2023/03/31 00:36:19;;;;;;;45.38;6.32;;;;;;;;;;5052835;28;20040;-69
2023/03/31 00:38:46;;;;;;;44.35;6.95;;;;;;;;;;5033620;28;20106;-69
2023/03/31 00:41:13;;;;;;;41.50;7.07;;;;;;;;;;5051001;28;20126;-69
2023/03/31 00:43:41;;;;;;;49.38;7.10;;;;;;;;;;5048079;28;20071;-69
2023/03/31 00:46:14;;;;;;;48.15;7.88;;;;;;;;;;5034108;28;20065;-69
2023/03/31 00:48:45;;;;;;;40.85;6.82;;;;;;;;;;5052808;28;20076;-69
2023/03/31 00:51:11;;;;;;;52.78;7.50;;;;;;;;;;5032819;28;20036;-69
2023/03/31 00:53:37;;;;;;;46.40;7.90;;;;;;;;;;5048373;28;20568;-68
2023/03/31 00:56:06;;;;;;;45.90;7.30;;;;;;;;;;5051751;28;20048;-69
2023/03/31 00:58:33;;;;;;;43.72;7.25;;;;;;;;;;5053285;28;20063;-69
2023/03/31 01:01:01;;;;;;;48.58;7.78;;;;;;;;;;5052928;28;20075;-69
2023/03/31 01:03:29;;;;;;;42.40;7.47;;;;;;;;;;5052276;28;20130;-69
2023/03/31 01:05:59;;;;;;;52.70;6.70;;;;;;;;;;5053091;28;20060;-69
2023/03/31 01:08:27;;;;;;;56.03;8.93;;;;;;;;;;5049082;28;20784;-69
2023/03/31 01:10:55;;;;;;;42.22;7.22;;;;;;;;;;5034716;28;20068;-69
2023/03/31 01:13:22;;;;;;;46.00;7.80;;;;;;;;;;5050904;28;20087;-69
2023/03/31 01:15:48;;;;;;;35.97;7.07;;;;;;;;;;5034081;28;20044;-70
2023/03/31 01:18:19;;;;;;;46.65;7.30;;;;;;;;;;5058057;28;20178;-69
2023/03/31 01:21:02;;;;;;;45.85;9.07;;;;;;;;;;5055623;28;20454;-69
2023/03/31 01:23:37;;;;;;;46.45;6.57;;;;;;;;;;5036821;28;20049;-69
2023/03/31 01:26:17;;;;;;;43.17;8.00;;;;;;;;;;5057982;28;20120;-69
2023/03/31 01:28:56;;;;;;;39.80;6.85;;;;;;;;;;5054733;28;20080;-69
2023/03/31 01:31:29;;;;;;;44.72;8.13;;;;;;;;;;5052162;28;20134;-69
2023/03/31 01:34:16;;;;;;;34.92;6.05;;;;;;;;;;5057892;28;20518;-69
2023/03/31 01:36:59;;;;;;;54.90;9.85;;;;;;;;;;5057182;28;20040;-69
2023/03/31 01:39:48;;;;;;;48.93;8.20;;;;;;;;;;5039562;28;20052;-69
2023/03/31 01:42:25;;;;;;;54.33;7.85;;;;;;;;;;5055222;28;20078;-69
2023/03/31 01:44:51;;;;;;;40.83;7.32;;;;;;;;;;5057612;28;20040;-69
2023/03/31 01:47:21;;;;;;;50.50;6.63;;;;;;;;;;5056798;28;20052;-69
2023/03/31 01:49:48;;;;;;;42.72;7.28;;;;;;;;;;5039970;28;20048;-69
2023/03/31 01:52:25;;;;;;;49.70;8.45;;;;;;;;;;5037346;28;20496;-69
2023/03/31 01:55:03;;;;;;;46.42;6.72;;;;;;;;;;5055885;28;20055;-69
2023/03/31 01:57:33;;;;;;;41.90;7.05;;;;;;;;;;5055911;28;20056;-69
2023/03/31 02:00:07;;;;;;;39.03;8.43;;;;;;;;;;5037058;28;20059;-69
2023/03/31 02:02:33;;;;;;;;;;;;;;;;;;5058323;28;20055;-69
2023/03/31 02:05:04;;;;;;;44.85;6.63;;;;;;;;;;5037058;28;19921;-69
2023/03/31 02:07:37;;;;;;;44.60;8.10;;;;;;;;;;5037427;28;20460;-69
2023/03/31 02:10:05;;;;;;;38.90;6.15;;;;;;;;;;5039489;28;20480;-69
2023/03/31 02:12:32;;;;;;;40.65;7.18;;;;;;;;;;5055993;28;20049;-69
2023/03/31 02:14:59;;;;;;;46.15;6.75;;;;;;;;;;5038449;28;20042;-69
2023/03/31 02:17:29;;;;;;;51.72;8.15;;;;;;;;;;5054494;28;20076;-69
2023/03/31 02:19:58;;;;;;;35.22;6.22;;;;;;;;;;5040642;28;20123;-69
2023/03/31 02:22:25;;;;;;;43.20;7.38;;;;;;;;;;5058423;28;20085;-69
2023/03/31 02:24:52;;;;;;;36.00;6.40;;;;;;;;;;5035531;28;20086;-69
2023/03/31 02:27:22;;;;;;;44.80;7.57;;;;;;;;;;5057113;28;20047;-68
2023/03/31 02:29:48;;;;;;;40.38;6.53;;;;;;;;;;5055078;28;20414;-69
2023/03/31 02:32:21;;;;;;;40.53;8.48;;;;;;;;;;5055700;28;20045;-69
2023/03/31 02:34:47;;;;;;;41.17;6.25;;;;;;;;;;5039177;28;20076;-69
2023/03/31 02:37:14;;;;;;;35.17;6.65;;;;;;;;;;5053664;28;20063;-69
2023/03/31 02:39:42;;;;;;;47.63;6.93;;;;;;;;;;5039797;28;20048;-69
2023/03/31 02:42:08;;;;;;;39.63;6.50;;;;;;;;;;5059492;28;20102;-69
2023/03/31 02:44:36;;;;;;;38.83;6.63;;;;;;;;;;5037416;28;20051;-69
2023/03/31 02:47:03;;;;;;;47.13;7.45;;;;;;;;;;5055599;28;20041;-69
2023/03/31 02:49:30;;;;;;;36.20;6.80;;;;;;;;;;5057419;28;20044;-69
2023/03/31 02:51:57;;;;;;;28.20;6.00;;;;;;;;;;5042332;28;20051;-69
2023/03/31 02:54:26;;;;;;;37.58;7.43;;;;;;;;;;5056315;28;20079;-69
2023/03/31 02:57:25;;;;;;;36.38;6.35;;;;;;;;;;5058894;28;20071;-69
2023/03/31 03:00:03;;;;;;;36.70;6.78;;;;;;;;;;5038885;28;20029;-69
2023/03/31 03:02:42;;;;;;;48.53;7.88;;;;;;;;;;5054237;28;20396;-69
2023/03/31 03:05:27;;;;;;;36.58;6.00;;;;;;;;;;5056203;28;20041;-69
2023/03/31 03:07:59;;;;;;;32.90;5.95;;;;;;;;;;5055866;28;20047;-69
2023/03/31 03:10:30;;;;;;;29.77;6.45;;;;;;;;;;5054346;28;20189;-69
2023/03/31 03:12:57;;;;;;;38.00;6.15;;;;;;;;;;5056270;28;20455;-69
2023/03/31 03:15:33;;;;;;;30.40;5.78;;;;;;;;;;5055959;28;20053;-69
2023/03/31 03:18:00;;;;;;;39.38;5.53;;;;;;;;;;5055026;28;20134;-70
2023/03/31 03:20:26;;;;;;;31.83;5.80;;;;;;;;;;5056579;28;20048;-69
2023/03/31 03:22:52;;;;;;;37.97;4.88;;;;;;;;;;5038249;28;20135;-69
2023/03/31 03:25:19;;;;;;;43.78;5.60;;;;;;;;;;5038383;28;20049;-69
2023/03/31 03:27:46;;;;;;;25.80;4.43;;;;;;;;;;5056807;28;21278;-69
2023/03/31 03:30:13;;;;;;;27.63;5.35;;;;;;;;;;5038401;28;20578;-69
2023/03/31 03:32:40;;;;;;;26.65;5.43;;;;;;;;;;5053194;28;20041;-69
2023/03/31 03:35:06;;;;;;;29.83;5.25;;;;;;;;;;5053558;28;21888;-69
2023/03/31 03:37:33;;;;;;;28.70;5.13;;;;;;;;;;5056975;28;20036;-69
2023/03/31 03:39:59;;;;;;;24.10;5.40;;;;;;;;;;5039719;28;20174;-69
2023/03/31 03:42:25;;;;;;;28.60;6.05;;;;;;;;;;5054525;28;20131;-69
2023/03/31 03:44:51;;;;;;;33.90;5.30;;;;;;;;;;5057349;28;20064;-69
2023/03/31 03:47:18;;;;;;;35.53;6.13;;;;;;;;;;5055939;28;20049;-69
2023/03/31 03:49:44;;;;;;;30.80;5.70;;;;;;;;;;5055278;28;20082;-69
2023/03/31 03:52:10;;;;;;;37.22;6.38;;;;;;;;;;5057934;28;20519;-69
2023/03/31 03:54:36;;;;;;;27.73;6.00;;;;;;;;;;5058084;28;20492;-69
2023/03/31 03:57:02;;;;;;;25.92;6.28;;;;;;;;;;5054763;28;20102;-69
2023/03/31 03:59:28;;;;;;;36.03;7.25;;;;;;;;;;5054884;28;20219;-69
2023/03/31 04:01:55;;;;;;;30.60;8.13;;;;;;;;;;5038013;28;20383;-68
2023/03/31 04:04:21;;;;;;;37.10;7.72;;;;;;;;;;5055389;28;20536;-68
2023/03/31 04:06:47;;;;;;;31.33;7.78;;;;;;;;;;5053744;28;20692;-68
2023/03/31 04:09:13;;;;;;;34.33;8.63;;;;;;;;;;5036804;28;20483;-69
2023/03/31 04:11:39;;;;;;;29.95;8.88;;;;;;;;;;5037617;28;20095;-68
2023/03/31 04:14:05;;;;;;;48.47;10.60;;;;;;;;;;5055628;28;20136;-69
2023/03/31 04:16:33;;;;;;;33.28;9.57;;;;;;;;;;5038321;28;20392;-69
2023/03/31 04:19:02;;;;;;;42.17;10.15;;;;;;;;;;5052642;28;20041;-69
2023/03/31 04:21:29;;;;;;;28.88;8.43;;;;;;;;;;5053605;28;20052;-69
2023/03/31 04:24:00;;;;;;;32.75;10.50;;;;;;;;;;5053757;28;20052;-69
2023/03/31 04:26:37;;;;;;;27.98;9.40;;;;;;;;;;5055508;28;20110;-69
2023/03/31 04:29:07;;;;;;;29.23;10.40;;;;;;;;;;5055887;28;20113;-69
2023/03/31 04:31:37;;;;;;;30.33;10.13;;;;;;;;;;5037299;28;20117;-68
2023/03/31 04:34:05;;;;;;;36.05;10.95;;;;;;;;;;5054317;28;20052;-68
2023/03/31 04:36:32;;;;;;;30.67;10.30;;;;;;;;;;5055236;28;20048;-68
2023/03/31 04:38:59;;;;;;;34.13;9.40;;;;;;;;;;5052111;28;20048;-69
2023/03/31 04:41:27;;;;;;;27.55;10.32;;;;;;;;;;5052046;28;20113;-68
2023/03/31 04:43:53;;;;;;;35.92;10.73;;;;;;;;;;5051628;28;20043;-69
2023/03/31 04:46:20;;;;;;;38.78;11.05;;;;;;;;;;5034267;28;20780;-65
2023/03/31 04:48:46;;;;;;;27.35;9.88;;;;;;;;;;5051244;28;20044;-68
2023/03/31 04:51:14;;;;;;;36.55;10.65;;;;;;;;;;5053514;28;20040;-68
2023/03/31 04:53:40;;;;;;;34.05;10.93;;;;;;;;;;5054622;28;20055;-68
2023/03/31 04:56:06;;;;;;;41.10;11.02;;;;;;;;;;5054630;28;20052;-68
2023/03/31 04:58:33;;;;;;;36.22;11.98;;;;;;;;;;5055341;28;20078;-68
2023/03/31 05:00:59;;;;;;;32.03;11.48;;;;;;;;;;5035540;28;20514;-69
2023/03/31 05:03:25;;;;;;;31.70;10.88;;;;;;;;;;5039892;28;20131;-69
2023/03/31 05:05:52;;;;;;;27.08;9.88;;;;;;;;;;5056595;28;20040;-69
2023/03/31 05:08:18;;;;;;;32.08;11.05;;;;;;;;;;5037763;28;20084;-69
2023/03/31 05:10:44;;;;;;;28.50;10.80;;;;;;;;;;5052007;28;20049;-69
2023/03/31 05:13:10;;;;;;;33.28;9.55;;;;;;;;;;5051972;28;20052;-69
2023/03/31 05:15:37;;;;;;;29.98;10.85;;;;;;;;;;5056343;28;20120;-69
2023/03/31 05:18:03;;;;;;;32.40;10.45;;;;;;;;;;5031547;28;20121;-69
2023/03/31 05:20:30;;;;;;;31.60;10.85;;;;;;;;;;5034597;28;20492;-69
2023/03/31 05:22:56;;;;;;;24.33;9.23;;;;;;;;;;5033674;28;20174;-68
2023/03/31 05:25:22;;;;;;;23.08;9.43;;;;;;;;;;5034986;28;20447;-68
2023/03/31 05:27:49;;;;;;;34.75;10.75;;;;;;;;;;5033392;28;20041;-68
2023/03/31 05:30:16;;;;;;;31.40;11.60;;;;;;;;;;5034300;28;20068;-69
2023/03/31 05:32:43;;;;;;;32.75;11.15;;;;;;;;;;5035245;28;20040;-68
2023/03/31 05:35:09;;;;;;;40.75;11.88;;;;;;;;;;5033269;28;20053;-68
2023/03/31 05:37:36;;;;;;;33.50;11.10;;;;;;;;;;5034706;28;20068;-68
2023/03/31 05:40:03;;;;;;;35.88;11.57;;;;;;;;;;5033754;28;20056;-68
2023/03/31 05:42:30;;;;;;;26.80;10.50;;;;;;;;;;5031519;28;20139;-69
2023/03/31 05:44:56;;;;;;;26.45;9.75;;;;;;;;;;5034725;28;20076;-68
2023/03/31 05:47:22;;;;;;;27.77;10.25;;;;;;;;;;5037084;28;20136;-68
2023/03/31 05:49:49;;;;;;;26.15;9.93;;;;;;;;;;5031619;28;21792;-68
2023/03/31 05:52:16;;;;;;;22.33;10.43;;;;;;;;;;5032401;28;20049;-68
2023/03/31 05:54:43;;;;;;;28.63;10.80;;;;;;;;;;5032146;28;20132;-66
2023/03/31 05:57:09;;;;;;;31.52;10.80;;;;;;;;;;5030030;28;20488;-68
2023/03/31 05:59:35;;;;;;;28.45;10.32;;;;;;;;;;5028944;28;20568;-68
2023/03/31 06:02:02;;;;;;;29.35;12.18;;;;;;;;;;5030392;28;21636;-68
2023/03/31 06:04:30;;;;;;;30.08;11.73;;;;;;;;;;5036319;28;20040;-68
2023/03/31 06:06:57;;;;;;;28.15;11.68;;;;;;;;;;5039663;28;20076;-68
2023/03/31 06:09:23;;;;;;;31.08;12.65;;;;;;;;;;5042161;28;20075;-68
2023/03/31 06:11:49;;;;;;;32.60;11.48;;;;;;;;;;5035998;28;20045;-69
2023/03/31 06:14:15;;;;;;;23.05;11.48;;;;;;;;;;5038276;28;20080;-67
2023/03/31 06:16:41;;;;;;;27.27;12.25;;;;;;;;;;5039809;28;20049;-66
2023/03/31 06:19:07;;;;;;;33.65;13.43;;;;;;;;;;5036615;28;20083;-68
2023/03/31 06:21:34;;;;;;;25.48;12.02;;;;;;;;;;5034044;28;20053;-68
2023/03/31 06:24:00;;;;;;;25.38;12.27;;;;;;;;;;5035893;28;20042;-68
2023/03/31 06:26:27;;;;;;;25.42;11.82;;;;;;;;;;5041663;28;20040;-68
2023/03/31 06:28:53;;;;;;;32.67;11.60;;;;;;;;;;5035972;28;20044;-68
2023/03/31 06:31:21;;;;;;;25.50;11.68;;;;;;;;;;5035390;28;20056;-68
2023/03/31 06:33:47;;;;;;;23.58;10.45;;;;;;;;;;5036056;28;20082;-68
2023/03/31 06:36:15;;;;;;;22.50;8.70;;;;;;;;;;5035027;28;20045;-70
2023/03/31 06:38:41;;;;;;;24.50;8.65;;;;;;;;;;5036723;28;20037;-69
2023/03/31 06:41:08;;;;;;;25.35;9.13;;;;;;;;;;5032610;28;20060;-69
2023/03/31 06:43:34;;;;;;;24.85;7.88;;;;;;;;;;5033896;28;20071;-69
2023/03/31 06:46:01;;;;;;;16.02;7.60;;;;;;;;;;5033441;28;20053;-68
2023/03/31 06:48:27;;;;;;;21.30;8.10;;;;;;;;;;5032613;28;20116;-68
2023/03/31 06:50:54;;;;;;;15.85;6.20;;;;;;;;;;5035859;28;20132;-70
2023/03/31 06:53:21;;;;;;;20.00;7.50;;;;;;;;;;5036265;28;20049;-69
2023/03/31 06:55:47;;;;;;;19.25;7.47;;;;;;;;;;5035202;28;20038;-69
2023/03/31 06:58:13;;;;;;;21.05;7.30;;;;;;;;;;5030035;28;20053;-74
2023/03/31 07:00:39;;;;;;;17.23;6.90;;;;;;;;;;5034030;28;20048;-69
2023/03/31 07:03:07;;;;;;;23.85;7.75;;;;;;;;;;5032217;28;20053;-69
2023/03/31 07:05:34;;;;;;;21.00;6.72;;;;;;;;;;5038695;28;20090;-69
2023/03/31 07:08:00;;;;;;;13.55;6.10;;;;;;;;;;5035730;28;20052;-69
2023/03/31 07:10:28;;;;;;;17.17;7.30;;;;;;;;;;5035871;28;20140;-67
2023/03/31 07:12:54;;;;;;;21.77;6.75;;;;;;;;;;5039839;28;20484;-67
2023/03/31 07:15:21;;;;;;;17.00;6.35;;;;;;;;;;5040156;28;20127;-67
2023/03/31 07:17:49;;;;;;;18.92;5.82;;;;;;;;;;5019407;28;20785;-67
2023/03/31 07:20:17;;;;;;;16.95;5.15;;;;;;;;;;5036727;28;20048;-67
2023/03/31 07:22:44;;;;;;;15.98;5.63;;;;;;;;;;5038468;28;20475;-68
2023/03/31 07:25:11;;;;;;;11.93;5.57;;;;;;;;;;5035001;28;20065;-67
2023/03/31 07:27:37;;;;;;;15.50;5.72;;;;;;;;;;5037210;28;20084;-68
2023/03/31 07:30:04;;;;;;;14.15;6.00;;;;;;;;;;5044394;28;20334;-69
2023/03/31 07:32:31;;;;;;;11.90;5.65;;;;;;;;;;5045547;28;20049;-68
2023/03/31 07:34:58;;;;;;;17.25;5.75;;;;;;;;;;5039189;28;20807;-69
2023/03/31 07:37:24;;;;;;;13.15;5.18;;;;;;;;;;5039024;28;20132;-69
2023/03/31 07:39:51;;;;;;;14.77;6.28;;;;;;;;;;5035376;28;20465;-69
2023/03/31 07:42:17;;;;;;;15.65;5.57;;;;;;;;;;5042442;28;20049;-68
2023/03/31 07:44:43;;;;;;;18.25;5.88;;;;;;;;;;5045253;28;20048;-68
2023/03/31 07:47:09;;;;;;;15.75;5.85;;;;;;;;;;5044205;28;20080;-68
2023/03/31 07:49:36;;;;;;;13.02;5.20;;;;;;;;;;5042039;28;20481;-68
2023/03/31 07:52:02;;;;;;;18.48;5.45;;;;;;;;;;5043886;28;20119;-68
2023/03/31 07:54:28;;;;;;;14.73;5.85;;;;;;;;;;5048504;28;20352;-68
2023/03/31 07:56:54;;;;;;;15.15;6.03;;;;;;;;;;5040137;28;20088;-68
2023/03/31 07:59:21;;;;;;;16.60;5.40;;;;;;;;;;5045477;28;20048;-68
2023/03/31 08:01:47;;;;;;;12.25;4.63;;;;;;;;;;5041541;28;20123;-68
2023/03/31 08:04:13;;;;;;;15.88;6.03;;;;;;;;;;5039607;28;20052;-68
2023/03/31 08:06:39;;;;;;;16.33;6.50;;;;;;;;;;5042885;28;20045;-68
2023/03/31 08:09:06;;;;;;;11.63;5.20;;;;;;;;;;5037992;28;20037;-68
2023/03/31 08:11:33;;;;;;;17.13;5.95;;;;;;;;;;5043726;28;20509;-68
2023/03/31 08:13:59;;;;;;;16.23;6.82;;;;;;;;;;5044873;28;20140;-68
2023/03/31 08:16:25;;;;;;;16.70;6.88;;;;;;;;;;5044846;28;20135;-68
2023/03/31 08:18:51;;;;;;;18.67;7.15;;;;;;;;;;5054975;28;20052;-68
2023/03/31 08:21:18;;;;;;;15.85;7.00;;;;;;;;;;5065881;28;20047;-68
2023/03/31 08:23:44;;;;;;;14.00;7.13;;;;;;;;;;5067260;28;20045;-68
2023/03/31 08:26:12;;;;;;;20.10;7.22;;;;;;;;;;5063390;28;20068;-68
2023/03/31 08:28:39;;;;;;;13.82;7.15;;;;;;;;;;5068084;28;20076;-68
2023/03/31 08:31:06;;;;;;;16.95;7.50;;;;;;;;;;5065400;28;20457;-68
2023/03/31 08:33:32;;;;;;;15.68;6.85;;;;;;;;;;5040772;28;20094;-68
2023/03/31 08:36:05;;;;;;;17.27;7.57;;;;;;;;;;5061315;28;20235;-68
2023/03/31 08:38:31;;;;;;;16.77;7.85;;;;;;;;;;5059424;28;20397;-68
2023/03/31 08:40:59;;;;;;;16.52;7.95;;;;;;;;;;5060215;28;20395;-68
2023/03/31 08:43:28;;;;;;;21.08;8.18;;;;;;;;;;5046062;28;20051;-68
2023/03/31 08:45:55;;;;;;;18.85;8.23;;;;;;;;;;5043781;28;20438;-68
2023/03/31 08:48:24;;;;;;;16.38;8.50;;;;;;;;;;5064515;28;20052;-68
2023/03/31 08:50:53;;;;;;;16.27;7.50;;;;;;;;;;5065500;28;20095;-68
2023/03/31 08:53:24;;;;;;;17.65;7.85;;;;;;;;;;5061462;28;20049;-68
2023/03/31 08:55:54;;;;;;;18.70;8.82;;;;;;;;;;5041797;28;20055;-68
2023/03/31 08:58:31;;;;;;;18.60;8.43;;;;;;;;;;5061759;28;20072;-68
2023/03/31 09:01:03;;;;;;;19.33;8.27;;;;;;;;;;5063667;28;20048;-68
2023/03/31 09:03:30;;;;;;;19.23;8.55;;;;;;;;;;5055550;28;20036;-68
2023/03/31 09:05:59;;;;;;;21.88;8.48;;;;;;;;;;5063073;28;20101;-68
2023/03/31 09:08:35;;;;;;;14.55;7.85;;;;;;;;;;5063370;28;20518;-68
2023/03/31 09:11:06;;;;;;;16.10;8.18;;;;;;;;;;5064280;28;20036;-68
2023/03/31 09:13:39;;;;;;;18.23;7.57;;;;;;;;;;5061316;28;20399;-68
2023/03/31 09:16:12;;;;;;;18.92;6.35;;;;;;;;;;5043484;28;20251;-68
2023/03/31 09:18:39;;;;;;;;;;;;;;;;;;5058521;28;20721;-68
2023/03/31 09:21:13;;;;;;;14.88;6.63;;;;;;;;;;5062286;28;19924;-68
2023/03/31 09:24:01;;;;;;;16.48;6.90;;;;;;;;;;5042887;28;20481;-68
2023/03/31 09:26:35;;;;;;;11.85;6.32;;;;;;;;;;5056964;28;20503;-68
2023/03/31 09:29:03;;;;;;;16.65;7.63;;;;;;;;;;5060444;28;20202;-68
2023/03/31 09:31:30;;;;;;;15.52;7.40;;;;;;;;;;5040188;28;20056;-69
2023/03/31 09:34:00;;;;;;;17.67;7.25;;;;;;;;;;5042185;28;20044;-69
2023/03/31 09:36:26;;;;;;;13.70;6.85;;;;;;;;;;5040822;28;20055;-68
2023/03/31 09:38:52;;;;;;;17.75;6.85;;;;;;;;;;5063222;28;20044;-68
2023/03/31 09:41:19;;;;;;;18.13;6.28;;;;;;;;;;5046419;28;20128;-68
2023/03/31 09:43:46;;;;;;;10.65;5.63;;;;;;;;;;5046258;28;20045;-69
2023/03/31 09:46:23;;;;;;;16.13;5.72;;;;;;;;;;5065720;28;20052;-68
2023/03/31 09:48:53;;;;;;;17.25;5.57;;;;;;;;;;5065014;28;20032;-68
2023/03/31 09:51:23;;;;;;;8.40;5.15;;;;;;;;;;5068674;28;20051;-68
2023/03/31 09:53:53;;;;;;;13.70;4.57;;;;;;;;;;5048178;28;20056;-68
2023/03/31 09:56:34;;;;;;;11.73;4.93;;;;;;;;;;5062658;28;20052;-68
2023/03/31 09:59:01;;;;;;;12.30;4.32;;;;;;;;;;5065393;28;20037;-68
2023/03/31 10:01:28;;;;;;;12.43;4.68;;;;;;;;;;5064800;28;20040;-68
2023/03/31 10:03:55;;;;;;;15.98;4.60;;;;;;;;;;5061678;28;20123;-68
2023/03/31 10:06:23;;;;;;;15.80;5.43;;;;;;;;;;5060698;28;20120;-68
2023/03/31 10:08:57;;;;;;;9.65;4.95;;;;;;;;;;5064581;28;20033;-68
2023/03/31 10:11:23;;;;;;;9.88;5.13;;;;;;;;;;5064723;28;20127;-68
2023/03/31 10:14:01;;;;;;;17.75;6.45;;;;;;;;;;5066623;28;20135;-68
2023/03/31 10:16:30;;;;;;;13.40;5.78;;;;;;;;;;5064407;28;20051;-68
2023/03/31 10:19:10;;;;;;;13.10;5.82;;;;;;;;;;5043352;28;20182;-68
2023/03/31 10:21:37;;;;;;;13.10;5.88;;;;;;;;;;5046539;28;20099;-68
2023/03/31 10:24:08;;;;;;;15.45;5.70;;;;;;;;;;5042904;28;20052;-68
2023/03/31 10:26:34;;;;;;;17.17;6.25;;;;;;;;;;5040952;28;20038;-68
2023/03/31 10:29:00;;;;;;;14.32;6.47;;;;;;;;;;5046356;28;20043;-68
2023/03/31 10:31:33;;;;;;;17.15;6.43;;;;;;;;;;5041442;28;20041;-68
2023/03/31 10:34:04;;;;;;;23.08;5.90;;;;;;;;;;5042326;28;20041;-68
2023/03/31 10:36:30;;;;;;;16.60;6.15;;;;;;;;;;5044329;28;20036;-68
2023/03/31 10:38:57;;;;;;;14.23;6.43;;;;;;;;;;5043390;28;20450;-68
2023/03/31 10:41:25;;;;;;;20.52;6.78;;;;;;;;;;5047347;28;20523;-68
2023/03/31 10:43:54;;;;;;;17.83;7.88;;;;;;;;;;5041476;28;20397;-68
2023/03/31 10:46:21;;;;;;;19.08;7.20;;;;;;;;;;5044454;28;20476;-68
2023/03/31 10:48:47;;;;;;;18.25;6.05;;;;;;;;;;5045983;28;20112;-68
2023/03/31 10:51:16;;;;;;;18.05;7.15;;;;;;;;;;5045852;28;20048;-68
2023/03/31 10:53:45;;;;;;;14.30;5.20;;;;;;;;;;5043449;28;20037;-68
2023/03/31 10:56:33;;;;;;;14.50;5.78;;;;;;;;;;5049524;28;20048;-68
2023/03/31 10:59:09;;;;;;;18.23;5.38;;;;;;;;;;5046470;28;20037;-68
2023/03/31 11:01:35;;;;;;;17.95;5.47;;;;;;;;;;5047383;28;20047;-68
2023/03/31 11:04:16;;;;;;;12.75;4.57;;;;;;;;;;5046563;28;20510;-68
2023/03/31 11:06:49;;;;;;;13.70;5.47;;;;;;;;;;5045044;28;20570;-68
2023/03/31 11:09:29;;;;;;;13.37;5.50;;;;;;;;;;5044501;28;20056;-68
2023/03/31 11:11:59;;;;;;;18.38;5.47;;;;;;;;;;5042732;28;20284;-68
2023/03/31 11:14:33;;;;;;;15.85;4.53;;;;;;;;;;5047327;28;20071;-68
2023/03/31 11:17:07;;;;;;;11.90;4.22;;;;;;;;;;5046678;28;20045;-67
2023/03/31 11:19:45;;;;;;;16.30;5.20;;;;;;;;;;5063288;28;20080;-68
2023/03/31 11:22:16;;;;;;;13.48;4.32;;;;;;;;;;5065615;28;20036;-68
2023/03/31 11:24:46;;;;;;;12.63;4.13;;;;;;;;;;5061654;28;20105;-68
2023/03/31 11:27:25;;;;;;;14.15;4.13;;;;;;;;;;5061044;28;20392;-68
2023/03/31 11:30:00;;;;;;;11.50;3.70;;;;;;;;;;5063241;28;20079;-68
2023/03/31 11:32:41;;;;;;;14.75;3.90;;;;;;;;;;5045519;28;20098;-68
2023/03/31 11:35:20;;;;;;;13.93;3.13;;;;;;;;;;5047034;28;20044;-68
2023/03/31 11:38:00;;;;;;;13.20;3.38;;;;;;;;;;5063365;28;20086;-68
2023/03/31 11:40:40;;;;;;;9.63;3.22;;;;;;;;;;5063155;28;21307;-68
2023/03/31 11:43:11;;;;;;;12.52;2.67;;;;;;;;;;5042083;28;20139;-68
2023/03/31 11:45:39;;;;;;;9.40;2.53;;;;;;;;;;5062032;28;20044;-67
2023/03/31 11:48:09;;;;;;;12.38;2.70;;;;;;;;;;5043086;28;20056;-68
2023/03/31 11:50:38;;;;;;;9.25;2.92;;;;;;;;;;5053928;28;20036;-68
2023/03/31 11:53:19;;;;;;;10.80;2.67;;;;;;;;;;5060689;28;20567;-65
2023/03/31 11:55:47;;;;;;;9.20;2.90;;;;;;;;;;5051881;28;20061;-66
2023/03/31 11:58:23;;;;;;;12.98;3.13;;;;;;;;;;5057683;28;20074;-65
2023/03/31 12:00:50;;;;;;;12.50;3.33;;;;;;;;;;5050892;28;20390;-66
2023/03/31 12:03:16;;;;;;;12.23;2.60;;;;;;;;;;5055275;28;20049;-66
2023/03/31 12:05:46;;;;;;;11.15;3.65;;;;;;;;;;5057901;28;20037;-66
2023/03/31 12:08:15;;;;;;;10.90;2.75;;;;;;;;;;5054379;28;20377;-66
2023/03/31 12:10:44;;;;;;;10.95;2.80;;;;;;;;;;5040086;28;20041;-66
2023/03/31 12:13:30;;;;;;;11.57;3.15;;;;;;;;;;5061647;28;20044;-66
2023/03/31 12:16:08;;;;;;;13.20;2.97;;;;;;;;;;5056141;28;20048;-66
2023/03/31 12:18:42;;;;;;;7.70;2.10;;;;;;;;;;5059278;28;20044;-65
2023/03/31 12:21:09;;;;;;;12.23;3.03;;;;;;;;;;5057263;28;20534;-65
2023/03/31 12:23:40;;;;;;;13.93;3.75;;;;;;;;;;5056999;28;20123;-66
2023/03/31 12:26:07;;;;;;;17.08;4.13;;;;;;;;;;5059995;28;20037;-66
2023/03/31 12:28:36;;;;;;;18.75;5.35;;;;;;;;;;5039387;28;20124;-66
2023/03/31 12:31:04;;;;;;;18.33;6.28;;;;;;;;;;5063066;28;20346;-66
2023/03/31 12:33:32;;;;;;;19.67;7.85;;;;;;;;;;5062442;28;20452;-66
2023/03/31 12:35:59;;;;;;;19.88;6.88;;;;;;;;;;5042576;28;20110;-66
2023/03/31 12:38:25;;;;;;;22.60;7.60;;;;;;;;;;5062346;28;20119;-67
2023/03/31 12:40:52;;;;;;;19.83;6.97;;;;;;;;;;5061770;28;20052;-66
2023/03/31 12:43:26;;;;;;;18.27;5.75;;;;;;;;;;5038767;28;20387;-68
2023/03/31 12:46:03;;;;;;;21.27;6.57;;;;;;;;;;5056283;28;20043;-68
2023/03/31 12:48:29;;;;;;;20.52;6.80;;;;;;;;;;5060053;28;20052;-69
2023/03/31 12:50:56;;;;;;;19.67;6.55;;;;;;;;;;5058781;28;20084;-68
2023/03/31 12:53:35;;;;;;;17.25;6.53;;;;;;;;;;5042235;28;20098;-68
2023/03/31 12:56:01;;;;;;;21.20;6.78;;;;;;;;;;5058448;28;20055;-68
2023/03/31 12:58:30;;;;;;;13.68;5.18;;;;;;;;;;5059223;28;20115;-68
2023/03/31 13:01:04;;;;;;;19.05;6.00;;;;;;;;;;5038447;28;20098;-68
2023/03/31 13:03:32;;;;;;;;;;;;;;;;;;5057083;28;20053;-68
2023/03/31 13:05:59;;;;;;;15.70;5.30;;;;;;;;;;5057348;28;20679;-68
2023/03/31 13:08:44;;;;;;;17.73;4.45;;;;;;;;;;5041479;28;20571;-68
2023/03/31 13:11:10;;;;;;;16.80;3.20;;;;;;;;;;5060227;28;20122;-68
2023/03/31 13:13:40;;;;;;;9.75;3.10;;;;;;;;;;5044022;28;20131;-68
2023/03/31 13:16:06;;;;;;;8.40;2.85;;;;;;;;;;5064839;28;20084;-68
2023/03/31 13:18:33;;;;;;;10.20;1.98;;;;;;;;;;5061824;28;20064;-68
2023/03/31 13:21:03;;;;;;;11.43;2.55;;;;;;;;;;5061059;28;20492;-68
2023/03/31 13:23:33;;;;;;;8.27;1.83;;;;;;;;;;5060833;28;20147;-68
2023/03/31 13:25:59;;;;;;;10.02;2.03;;;;;;;;;;5061715;28;20049;-68
2023/03/31 13:28:27;;;;;;;9.43;1.70;;;;;;;;;;5061468;28;20110;-69
2023/03/31 13:30:59;;;;;;;9.30;2.40;;;;;;;;;;5041137;28;20059;-69
2023/03/31 13:33:32;;;;;;;11.77;1.92;;;;;;;;;;5055006;28;20056;-68
2023/03/31 13:36:13;;;;;;;12.68;2.30;;;;;;;;;;5044506;28;20094;-68
2023/03/31 13:38:46;;;;;;;12.43;2.70;;;;;;;;;;5039473;28;20040;-68
2023/03/31 13:41:22;;;;;;;10.43;2.47;;;;;;;;;;5041839;28;20052;-68
2023/03/31 13:43:56;;;;;;;8.45;1.98;;;;;;;;;;5063680;28;20055;-68
2023/03/31 13:46:31;;;;;;;9.73;2.30;;;;;;;;;;5060257;28;20052;-68
2023/03/31 13:49:13;;;;;;;12.85;2.35;;;;;;;;;;5059610;28;20087;-68
2023/03/31 13:51:50;;;;;;;8.23;2.05;;;;;;;;;;5039069;28;20041;-68
2023/03/31 13:54:26;;;;;;;8.15;1.85;;;;;;;;;;5062043;28;20143;-68
2023/03/31 13:57:09;;;;;;;11.63;2.97;;;;;;;;;;5059132;28;20473;-68
2023/03/31 13:59:42;;;;;;;12.68;2.00;;;;;;;;;;5041844;28;20072;-67
2023/03/31 14:02:20;;;;;;;7.38;2.17;;;;;;;;;;5059879;28;20067;-67
2023/03/31 14:04:56;;;;;;;11.00;1.92;;;;;;;;;;5058721;28;20396;-67
2023/03/31 14:07:28;;;;;;;8.25;1.63;;;;;;;;;;5038957;28;20523;-67
2023/03/31 14:09:55;;;;;;;7.07;1.63;;;;;;;;;;5053503;28;20040;-68
2023/03/31 14:12:30;;;;;;;6.20;1.55;;;;;;;;;;5042521;28;20048;-68
2023/03/31 14:14:56;;;;;;;12.00;2.45;;;;;;;;;;5062915;28;20055;-68
2023/03/31 14:17:26;;;;;;;8.93;2.55;;;;;;;;;;5043467;28;20500;-68
2023/03/31 14:20:06;;;;;;;8.35;1.88;;;;;;;;;;5043540;28;20079;-68
2023/03/31 14:22:43;;;;;;;5.72;1.50;;;;;;;;;;5040925;28;20368;-68
2023/03/31 14:25:09;;;;;;;7.05;2.15;;;;;;;;;;5043268;28;20049;-68
2023/03/31 14:27:39;;;;;;;9.80;2.50;;;;;;;;;;5041789;28;20338;-68
2023/03/31 14:30:13;;;;;;;11.13;2.40;;;;;;;;;;5037047;28;20085;-68
2023/03/31 14:32:45;;;;;;;8.35;2.05;;;;;;;;;;5039884;28;20033;-68
2023/03/31 14:35:28;;;;;;;6.80;1.30;;;;;;;;;;5043625;28;20057;-68
2023/03/31 14:37:55;;;;;;;5.85;1.23;;;;;;;;;;5039412;28;20182;-68
2023/03/31 14:40:22;;;;;;;8.10;1.60;;;;;;;;;;5043608;28;20041;-68
2023/03/31 14:42:48;;;;;;;5.68;1.20;;;;;;;;;;5041096;28;20046;-68
2023/03/31 14:45:17;;;;;;;6.03;1.20;;;;;;;;;;5039670;28;20037;-68